sensor_id;sensor_type;location;lat;lon;timestamp;pressure;altitude;pressure_sealevel;temperature;humidity
47082;BME280;33066;49.296;14.470;2023-02-18T00:00:36;97305.65;;;14.08;42.74
47082;BME280;33066;49.296;14.470;2023-02-18T00:03:01;97304.49;;;14.22;42.58
47082;BME280;33066;49.296;14.470;2023-02-18T00:05:28;97298.91;;;14.30;42.45
47082;BME280;33066;49.296;14.470;2023-02-18T00:07:52;97297.69;;;14.33;42.38
47082;BME280;33066;49.296;14.470;2023-02-18T00:10:17;97298.49;;;14.51;42.34
47082;BME280;33066;49.296;14.470;2023-02-18T00:12:43;97297.94;;;14.36;42.33
47082;BME280;33066;49.296;14.470;2023-02-18T00:15:09;97289.48;;;14.55;42.32
47082;BME280;33066;49.296;14.470;2023-02-18T00:17:33;97302.90;;;14.29;42.38
47082;BME280;33066;49.296;14.470;2023-02-18T00:19:59;97295.73;;;14.10;42.54
47082;BME280;33066;49.296;14.470;2023-02-18T00:22:24;97296.73;;;13.95;42.81
47082;BME280;33066;49.296;14.470;2023-02-18T00:24:49;97292.65;;;14.00;42.79
47082;BME280;33066;49.296;14.470;2023-02-18T00:27:15;97287.93;;;14.33;42.64
47082;BME280;33066;49.296;14.470;2023-02-18T00:29:41;97291.84;;;14.35;42.67
47082;BME280;33066;49.296;14.470;2023-02-18T00:32:05;97295.68;;;14.21;42.75
47082;BME280;33066;49.296;14.470;2023-02-18T00:34:31;97287.77;;;14.05;43.05
47082;BME280;33066;49.296;14.470;2023-02-18T00:36:57;97298.27;;;14.23;42.88
47082;BME280;33066;49.296;14.470;2023-02-18T00:39:21;97285.87;;;14.24;42.79
47082;BME280;33066;49.296;14.470;2023-02-18T00:41:47;97290.30;;;14.25;42.80
47082;BME280;33066;49.296;14.470;2023-02-18T00:44:12;97281.96;;;14.64;42.51
47082;BME280;33066;49.296;14.470;2023-02-18T00:46:37;97286.34;;;14.29;42.76
47082;BME280;33066;49.296;14.470;2023-02-18T00:49:03;97295.26;;;14.05;42.59
47082;BME280;33066;49.296;14.470;2023-02-18T00:51:28;97296.27;;;14.32;42.33
47082;BME280;33066;49.296;14.470;2023-02-18T00:53:54;97296.63;;;14.40;42.14
47082;BME280;33066;49.296;14.470;2023-02-18T00:56:19;97299.72;;;14.69;42.04
47082;BME280;33066;49.296;14.470;2023-02-18T00:58:44;97308.55;;;14.26;42.61
47082;BME280;33066;49.296;14.470;2023-02-18T01:01:10;97311.16;;;14.20;42.48
47082;BME280;33066;49.296;14.470;2023-02-18T01:03:36;97314.69;;;14.52;42.32
47082;BME280;33066;49.296;14.470;2023-02-18T01:06:00;97313.13;;;14.33;42.36
47082;BME280;33066;49.296;14.470;2023-02-18T01:08:25;97307.18;;;14.41;42.24
47082;BME280;33066;49.296;14.470;2023-02-18T01:10:53;97314.24;;;14.57;41.99
47082;BME280;33066;49.296;14.470;2023-02-18T01:13:16;97311.05;;;14.55;41.94
47082;BME280;33066;49.296;14.470;2023-02-18T01:15:42;97316.70;;;14.54;41.90
47082;BME280;33066;49.296;14.470;2023-02-18T01:18:08;97302.88;;;14.53;41.92
47082;BME280;33066;49.296;14.470;2023-02-18T01:20:32;97310.91;;;14.58;41.92
47082;BME280;33066;49.296;14.470;2023-02-18T01:22:57;97309.80;;;14.38;42.09
47082;BME280;33066;49.296;14.470;2023-02-18T01:25:23;97314.85;;;14.74;41.99
47082;BME280;33066;49.296;14.470;2023-02-18T01:27:48;97307.91;;;14.33;42.12
47082;BME280;33066;49.296;14.470;2023-02-18T01:30:16;97305.31;;;14.34;42.25
47082;BME280;33066;49.296;14.470;2023-02-18T01:32:38;97316.58;;;14.48;42.18
47082;BME280;33066;49.296;14.470;2023-02-18T01:35:05;97314.68;;;14.45;42.30
47082;BME280;33066;49.296;14.470;2023-02-18T01:37:29;97311.33;;;14.32;42.57
47082;BME280;33066;49.296;14.470;2023-02-18T01:39:54;97327.48;;;14.20;43.01
47082;BME280;33066;49.296;14.470;2023-02-18T01:42:25;97313.26;;;14.21;43.71
47082;BME280;33066;49.296;14.470;2023-02-18T01:44:46;97310.40;;;14.15;44.30
47082;BME280;33066;49.296;14.470;2023-02-18T01:47:10;97312.70;;;13.91;44.57
47082;BME280;33066;49.296;14.470;2023-02-18T01:49:36;97312.17;;;13.90;44.94
47082;BME280;33066;49.296;14.470;2023-02-18T01:52:06;97327.79;;;14.13;45.23
47082;BME280;33066;49.296;14.470;2023-02-18T01:54:30;97314.24;;;14.14;45.64
47082;BME280;33066;49.296;14.470;2023-02-18T01:56:55;97314.03;;;13.84;46.03
47082;BME280;33066;49.296;14.470;2023-02-18T01:59:23;97328.12;;;14.35;46.20
47082;BME280;33066;49.296;14.470;2023-02-18T02:01:43;97319.38;;;13.93;46.93
47082;BME280;33066;49.296;14.470;2023-02-18T02:04:08;97332.62;;;14.10;47.18
47082;BME280;33066;49.296;14.470;2023-02-18T02:06:33;97330.08;;;13.65;47.53
47082;BME280;33066;49.296;14.470;2023-02-18T02:09:00;97333.77;;;13.63;47.88
47082;BME280;33066;49.296;14.470;2023-02-18T02:11:34;97338.32;;;13.99;48.00
47082;BME280;33066;49.296;14.470;2023-02-18T02:16:21;97329.89;;;14.01;47.79
47082;BME280;33066;49.296;14.470;2023-02-18T02:18:51;97333.96;;;14.10;47.65
47082;BME280;33066;49.296;14.470;2023-02-18T02:23:42;97321.67;;;14.14;47.60
47082;BME280;33066;49.296;14.470;2023-02-18T02:33:27;97317.01;;;13.97;47.55
47082;BME280;33066;49.296;14.470;2023-02-18T02:35:41;97321.41;;;13.86;47.70
47082;BME280;33066;49.296;14.470;2023-02-18T02:38:05;97323.21;;;13.73;48.00
47082;BME280;33066;49.296;14.470;2023-02-18T02:40:32;97325.85;;;13.84;48.32
47082;BME280;33066;49.296;14.470;2023-02-18T02:43:02;97324.59;;;13.98;48.22
47082;BME280;33066;49.296;14.470;2023-02-18T02:45:25;97319.97;;;13.98;48.06
47082;BME280;33066;49.296;14.470;2023-02-18T02:47:50;97322.52;;;13.63;48.17
47082;BME280;33066;49.296;14.470;2023-02-18T02:50:13;97320.89;;;13.92;48.02
47082;BME280;33066;49.296;14.470;2023-02-18T02:52:39;97314.61;;;13.98;47.82
47082;BME280;33066;49.296;14.470;2023-02-18T02:55:04;97309.24;;;13.60;47.55
47082;BME280;33066;49.296;14.470;2023-02-18T02:57:42;97307.86;;;13.54;48.02
47082;BME280;33066;49.296;14.470;2023-02-18T02:59:56;97314.13;;;13.80;48.19
47082;BME280;33066;49.296;14.470;2023-02-18T03:02:24;97306.70;;;13.66;48.22
47082;BME280;33066;49.296;14.470;2023-02-18T03:04:55;97302.72;;;13.58;48.30
47082;BME280;33066;49.296;14.470;2023-02-18T03:09:40;97305.48;;;13.83;48.15
47082;BME280;33066;49.296;14.470;2023-02-18T03:12:04;97298.62;;;13.73;48.30
47082;BME280;33066;49.296;14.470;2023-02-18T03:14:29;97305.41;;;13.69;48.52
47082;BME280;33066;49.296;14.470;2023-02-18T03:16:50;97301.88;;;13.73;48.42
47082;BME280;33066;49.296;14.470;2023-02-18T03:19:19;97301.41;;;13.74;48.39
47082;BME280;33066;49.296;14.470;2023-02-18T03:21:41;97303.83;;;13.43;48.50
47082;BME280;33066;49.296;14.470;2023-02-18T03:24:08;97300.39;;;13.52;48.51
47082;BME280;33066;49.296;14.470;2023-02-18T03:26:30;97299.65;;;13.77;48.47
47082;BME280;33066;49.296;14.470;2023-02-18T03:28:57;97295.19;;;13.65;48.28
47082;BME280;33066;49.296;14.470;2023-02-18T03:31:25;97300.07;;;13.72;48.16
47082;BME280;33066;49.296;14.470;2023-02-18T03:33:50;97301.38;;;13.67;48.17
47082;BME280;33066;49.296;14.470;2023-02-18T03:36:12;97297.70;;;13.58;48.27
47082;BME280;33066;49.296;14.470;2023-02-18T03:38:38;97295.97;;;13.82;48.25
47082;BME280;33066;49.296;14.470;2023-02-18T03:41:02;97291.91;;;13.59;48.27
47082;BME280;33066;49.296;14.470;2023-02-18T03:43:26;97295.40;;;13.81;48.38
47082;BME280;33066;49.296;14.470;2023-02-18T03:45:51;97297.10;;;13.47;48.26
47082;BME280;33066;49.296;14.470;2023-02-18T03:48:16;97298.59;;;13.81;48.07
47082;BME280;33066;49.296;14.470;2023-02-18T03:50:41;97299.16;;;13.97;47.92
47082;BME280;33066;49.296;14.470;2023-02-18T03:53:07;97297.59;;;13.96;48.07
47082;BME280;33066;49.296;14.470;2023-02-18T03:55:34;97298.68;;;13.85;48.22
47082;BME280;33066;49.296;14.470;2023-02-18T03:57:57;97300.91;;;13.33;48.23
47082;BME280;33066;49.296;14.470;2023-02-18T04:00:23;97307.52;;;13.57;48.27
47082;BME280;33066;49.296;14.470;2023-02-18T04:02:49;97312.25;;;13.16;48.45
47082;BME280;33066;49.296;14.470;2023-02-18T04:05:14;97311.98;;;13.75;48.48
47082;BME280;33066;49.296;14.470;2023-02-18T04:07:39;97310.83;;;13.50;48.38
47082;BME280;33066;49.296;14.470;2023-02-18T04:13:01;97315.27;;;14.19;47.15
47082;BME280;33066;49.296;14.470;2023-02-18T04:15:26;97317.33;;;14.30;47.14
47082;BME280;33066;49.296;14.470;2023-02-18T04:17:51;97314.91;;;13.64;47.77
47082;BME280;33066;49.296;14.470;2023-02-18T04:20:17;97314.50;;;13.72;48.23
47082;BME280;33066;49.296;14.470;2023-02-18T04:22:42;97310.80;;;13.75;48.36
47082;BME280;33066;49.296;14.470;2023-02-18T04:25:07;97313.40;;;13.76;48.27
47082;BME280;33066;49.296;14.470;2023-02-18T04:27:32;97313.79;;;13.61;48.29
47082;BME280;33066;49.296;14.470;2023-02-18T04:29:58;97312.45;;;13.68;48.68
47082;BME280;33066;49.296;14.470;2023-02-18T04:32:23;97312.97;;;13.47;48.66
47082;BME280;33066;49.296;14.470;2023-02-18T04:34:48;97310.17;;;13.69;48.71
47082;BME280;33066;49.296;14.470;2023-02-18T04:37:14;97307.02;;;13.40;48.75
47082;BME280;33066;49.296;14.470;2023-02-18T04:39:39;97304.31;;;13.72;48.69
47082;BME280;33066;49.296;14.470;2023-02-18T04:42:04;97305.88;;;13.70;48.21
47082;BME280;33066;49.296;14.470;2023-02-18T04:44:29;97307.50;;;13.92;48.06
47082;BME280;33066;49.296;14.470;2023-02-18T04:46:55;97303.98;;;13.80;47.95
47082;BME280;33066;49.296;14.470;2023-02-18T04:49:20;97304.17;;;14.19;47.77
47082;BME280;33066;49.296;14.470;2023-02-18T04:51:45;97299.89;;;14.17;47.38
47082;BME280;33066;49.296;14.470;2023-02-18T04:54:11;97297.99;;;14.14;47.18
47082;BME280;33066;49.296;14.470;2023-02-18T04:56:36;97294.14;;;13.97;46.97
47082;BME280;33066;49.296;14.470;2023-02-18T04:59:01;97286.88;;;14.09;46.96
47082;BME280;33066;49.296;14.470;2023-02-18T05:01:27;97287.78;;;14.20;46.61
47082;BME280;33066;49.296;14.470;2023-02-18T05:03:54;97288.70;;;14.21;46.92
47082;BME280;33066;49.296;14.470;2023-02-18T05:06:17;97287.54;;;14.40;47.15
47082;BME280;33066;49.296;14.470;2023-02-18T05:08:43;97288.08;;;14.31;46.09
47082;BME280;33066;49.296;14.470;2023-02-18T05:11:09;97288.38;;;14.46;46.78
47082;BME280;33066;49.296;14.470;2023-02-18T05:13:34;97282.64;;;14.33;46.68
47082;BME280;33066;49.296;14.470;2023-02-18T05:15:59;97283.60;;;14.24;46.64
47082;BME280;33066;49.296;14.470;2023-02-18T05:18:24;97283.22;;;14.40;46.50
47082;BME280;33066;49.296;14.470;2023-02-18T05:20:51;97285.47;;;14.05;46.65
47082;BME280;33066;49.296;14.470;2023-02-18T05:23:15;97288.86;;;14.00;46.79
47082;BME280;33066;49.296;14.470;2023-02-18T05:25:40;97290.69;;;13.69;47.27
47082;BME280;33066;49.296;14.470;2023-02-18T05:28:05;97290.98;;;14.08;47.67
47082;BME280;33066;49.296;14.470;2023-02-18T05:30:31;97292.89;;;13.74;47.88
47082;BME280;33066;49.296;14.470;2023-02-18T05:32:56;97287.80;;;13.79;48.02
47082;BME280;33066;49.296;14.470;2023-02-18T05:35:21;97291.32;;;13.80;48.06
47082;BME280;33066;49.296;14.470;2023-02-18T05:37:47;97297.91;;;13.81;48.40
47082;BME280;33066;49.296;14.470;2023-02-18T05:40:12;97297.28;;;13.69;48.45
47082;BME280;33066;49.296;14.470;2023-02-18T05:42:37;97303.86;;;13.37;48.96
47082;BME280;33066;49.296;14.470;2023-02-18T05:45:03;97304.22;;;13.57;49.20
47082;BME280;33066;49.296;14.470;2023-02-18T05:47:28;97299.80;;;13.45;48.99
47082;BME280;33066;49.296;14.470;2023-02-18T05:49:53;97291.90;;;13.66;48.90
47082;BME280;33066;49.296;14.470;2023-02-18T05:52:18;97302.91;;;13.59;49.14
47082;BME280;33066;49.296;14.470;2023-02-18T05:54:44;97301.75;;;13.46;49.35
47082;BME280;33066;49.296;14.470;2023-02-18T05:57:10;97305.42;;;13.48;49.60
47082;BME280;33066;49.296;14.470;2023-02-18T05:59:34;97300.91;;;13.28;49.73
47082;BME280;33066;49.296;14.470;2023-02-18T06:02:00;97301.08;;;13.76;49.60
47082;BME280;33066;49.296;14.470;2023-02-18T06:04:25;97297.72;;;13.60;49.74
47082;BME280;33066;49.296;14.470;2023-02-18T06:06:50;97302.30;;;13.30;49.50
47082;BME280;33066;49.296;14.470;2023-02-18T06:09:16;97295.09;;;13.67;49.05
47082;BME280;33066;49.296;14.470;2023-02-18T06:11:41;97293.37;;;13.70;48.94
47082;BME280;33066;49.296;14.470;2023-02-18T06:14:06;97293.76;;;13.54;48.89
47082;BME280;33066;49.296;14.470;2023-02-18T06:16:33;97295.54;;;13.81;48.84
47082;BME280;33066;49.296;14.470;2023-02-18T06:18:57;97292.96;;;13.81;48.77
47082;BME280;33066;49.296;14.470;2023-02-18T06:21:22;97291.43;;;13.66;48.53
47082;BME280;33066;49.296;14.470;2023-02-18T06:23:47;97291.43;;;13.36;48.84
47082;BME280;33066;49.296;14.470;2023-02-18T06:26:13;97286.15;;;13.47;48.69
47082;BME280;33066;49.296;14.470;2023-02-18T06:28:38;97285.34;;;13.60;48.86
47082;BME280;33066;49.296;14.470;2023-02-18T06:31:04;97286.39;;;13.61;48.35
47082;BME280;33066;49.296;14.470;2023-02-18T06:33:29;97285.40;;;13.79;48.00
47082;BME280;33066;49.296;14.470;2023-02-18T06:35:56;97287.15;;;13.98;48.04
47082;BME280;33066;49.296;14.470;2023-02-18T06:38:19;97279.88;;;14.26;47.72
47082;BME280;33066;49.296;14.470;2023-02-18T06:40:45;97285.84;;;14.29;47.46
47082;BME280;33066;49.296;14.470;2023-02-18T06:43:10;97287.87;;;14.14;47.24
47082;BME280;33066;49.296;14.470;2023-02-18T06:45:38;97289.41;;;13.86;46.98
47082;BME280;33066;49.296;14.470;2023-02-18T06:48:02;97286.82;;;14.31;46.49
47082;BME280;33066;49.296;14.470;2023-02-18T06:50:26;97284.52;;;14.74;46.60
47082;BME280;33066;49.296;14.470;2023-02-18T06:52:51;97285.19;;;14.32;46.54
47082;BME280;33066;49.296;14.470;2023-02-18T06:55:16;97286.29;;;14.29;46.65
47082;BME280;33066;49.296;14.470;2023-02-18T06:57:41;97277.14;;;14.37;46.88
47082;BME280;33066;49.296;14.470;2023-02-18T07:00:08;97271.96;;;14.08;46.88
47082;BME280;33066;49.296;14.470;2023-02-18T07:02:32;97269.12;;;14.13;47.19
47082;BME280;33066;49.296;14.470;2023-02-18T07:04:57;97267.49;;;14.19;46.80
47082;BME280;33066;49.296;14.470;2023-02-18T07:07:22;97270.13;;;14.12;46.80
47082;BME280;33066;49.296;14.470;2023-02-18T07:09:48;97264.15;;;14.14;47.20
47082;BME280;33066;49.296;14.470;2023-02-18T07:12:13;97265.54;;;14.13;46.97
47082;BME280;33066;49.296;14.470;2023-02-18T07:14:39;97261.82;;;14.06;46.76
47082;BME280;33066;49.296;14.470;2023-02-18T07:17:05;97261.12;;;14.08;46.79
47082;BME280;33066;49.296;14.470;2023-02-18T07:19:29;97259.36;;;14.10;46.66
47082;BME280;33066;49.296;14.470;2023-02-18T07:21:54;97256.91;;;14.19;46.35
47082;BME280;33066;49.296;14.470;2023-02-18T07:24:21;97255.61;;;14.25;46.23
47082;BME280;33066;49.296;14.470;2023-02-18T07:26:45;97250.06;;;14.46;46.32
47082;BME280;33066;49.296;14.470;2023-02-18T07:29:10;97251.91;;;14.32;46.09
47082;BME280;33066;49.296;14.470;2023-02-18T07:31:35;97238.30;;;14.38;45.85
47082;BME280;33066;49.296;14.470;2023-02-18T07:34:01;97248.48;;;14.74;45.76
47082;BME280;33066;49.296;14.470;2023-02-18T07:36:26;97250.14;;;14.67;45.67
47082;BME280;33066;49.296;14.470;2023-02-18T07:38:51;97251.36;;;14.59;45.46
47082;BME280;33066;49.296;14.470;2023-02-18T07:41:19;97246.48;;;14.60;45.25
47082;BME280;33066;49.296;14.470;2023-02-18T07:43:42;97245.66;;;14.63;45.12
47082;BME280;33066;49.296;14.470;2023-02-18T07:46:08;97231.61;;;14.84;45.29
47082;BME280;33066;49.296;14.470;2023-02-18T07:48:33;97223.19;;;14.58;45.36
47082;BME280;33066;49.296;14.470;2023-02-18T07:50:58;97215.92;;;14.43;45.71
47082;BME280;33066;49.296;14.470;2023-02-18T07:53:23;97211.31;;;14.75;45.28
47082;BME280;33066;49.296;14.470;2023-02-18T07:55:49;97221.93;;;14.47;45.31
47082;BME280;33066;49.296;14.470;2023-02-18T07:58:15;97201.65;;;14.48;45.10
47082;BME280;33066;49.296;14.470;2023-02-18T08:00:39;97212.63;;;14.61;45.11
47082;BME280;33066;49.296;14.470;2023-02-18T08:03:05;97215.36;;;14.55;44.88
47082;BME280;33066;49.296;14.470;2023-02-18T08:05:30;97208.39;;;14.60;44.65
47082;BME280;33066;49.296;14.470;2023-02-18T08:07:57;97209.07;;;14.72;44.44
47082;BME280;33066;49.296;14.470;2023-02-18T08:10:21;97206.36;;;14.85;44.36
47082;BME280;33066;49.296;14.470;2023-02-18T08:12:47;97202.78;;;14.92;44.02
47082;BME280;33066;49.296;14.470;2023-02-18T08:15:12;97201.28;;;15.05;44.05
47082;BME280;33066;49.296;14.470;2023-02-18T08:17:37;97203.75;;;14.90;43.72
47082;BME280;33066;49.296;14.470;2023-02-18T08:20:02;97204.53;;;14.88;43.95
47082;BME280;33066;49.296;14.470;2023-02-18T08:22:29;97200.36;;;14.97;43.89
47082;BME280;33066;49.296;14.470;2023-02-18T08:24:53;97193.28;;;15.03;43.84
47082;BME280;33066;49.296;14.470;2023-02-18T08:27:18;97198.62;;;14.86;43.72
47082;BME280;33066;49.296;14.470;2023-02-18T08:29:44;97201.37;;;14.50;43.52
47082;BME280;33066;49.296;14.470;2023-02-18T08:32:10;97196.99;;;14.52;43.67
47082;BME280;33066;49.296;14.470;2023-02-18T08:34:36;97198.88;;;14.97;43.42
47082;BME280;33066;49.296;14.470;2023-02-18T08:37:01;97201.38;;;15.00;43.31
47082;BME280;33066;49.296;14.470;2023-02-18T08:39:27;97203.87;;;15.51;42.96
47082;BME280;33066;49.296;14.470;2023-02-18T08:41:52;97203.49;;;15.39;42.83
47082;BME280;33066;49.296;14.470;2023-02-18T08:44:17;97195.92;;;15.47;42.71
47082;BME280;33066;49.296;14.470;2023-02-18T08:46:43;97188.66;;;15.48;42.42
47082;BME280;33066;49.296;14.470;2023-02-18T08:49:08;97189.81;;;15.51;42.36
47082;BME280;33066;49.296;14.470;2023-02-18T08:51:34;97183.48;;;15.39;42.42
47082;BME280;33066;49.296;14.470;2023-02-18T08:53:59;97186.25;;;15.54;42.64
47082;BME280;33066;49.296;14.470;2023-02-18T08:56:25;97190.83;;;15.29;42.54
47082;BME280;33066;49.296;14.470;2023-02-18T08:58:50;97197.60;;;14.93;43.04
47082;BME280;33066;49.296;14.470;2023-02-18T09:01:16;97196.47;;;15.28;42.63
47082;BME280;33066;49.296;14.470;2023-02-18T09:03:41;97196.01;;;15.29;42.52
47082;BME280;33066;49.296;14.470;2023-02-18T09:06:08;97189.06;;;15.00;42.76
47082;BME280;33066;49.296;14.470;2023-02-18T09:08:32;97188.37;;;15.43;42.49
47082;BME280;33066;49.296;14.470;2023-02-18T09:10:59;97191.31;;;15.43;42.79
47082;BME280;33066;49.296;14.470;2023-02-18T09:13:23;97189.59;;;15.00;42.54
47082;BME280;33066;49.296;14.470;2023-02-18T09:15:57;97189.14;;;15.24;42.60
47082;BME280;33066;49.296;14.470;2023-02-18T09:18:13;97191.79;;;15.01;42.54
47082;BME280;33066;49.296;14.470;2023-02-18T09:20:39;97186.55;;;15.09;42.29
47082;BME280;33066;49.296;14.470;2023-02-18T09:23:04;97187.62;;;15.41;42.26
47082;BME280;33066;49.296;14.470;2023-02-18T09:25:29;97178.89;;;15.45;42.20
47082;BME280;33066;49.296;14.470;2023-02-18T09:27:54;97173.80;;;14.91;41.62
47082;BME280;33066;49.296;14.470;2023-02-18T09:30:20;97169.02;;;14.88;41.98
47082;BME280;33066;49.296;14.470;2023-02-18T09:32:45;97163.78;;;15.01;42.31
47082;BME280;33066;49.296;14.470;2023-02-18T09:35:10;97163.69;;;15.38;42.18
47082;BME280;33066;49.296;14.470;2023-02-18T09:37:35;97166.03;;;14.91;41.89
47082;BME280;33066;49.296;14.470;2023-02-18T09:40:01;97173.32;;;15.39;41.66
47082;BME280;33066;49.296;14.470;2023-02-18T09:42:31;97169.76;;;14.99;41.83
47082;BME280;33066;49.296;14.470;2023-02-18T09:44:53;97170.19;;;15.15;41.48
47082;BME280;33066;49.296;14.470;2023-02-18T09:47:23;97166.39;;;15.37;41.44
47082;BME280;33066;49.296;14.470;2023-02-18T09:49:45;97176.41;;;15.02;41.30
47082;BME280;33066;49.296;14.470;2023-02-18T09:52:13;97170.35;;;15.14;41.62
47082;BME280;33066;49.296;14.470;2023-02-18T09:54:32;97173.99;;;15.01;41.71
47082;BME280;33066;49.296;14.470;2023-02-18T09:56:58;97168.81;;;14.77;41.79
47082;BME280;33066;49.296;14.470;2023-02-18T09:59:24;97169.42;;;15.26;41.88
47082;BME280;33066;49.296;14.470;2023-02-18T10:01:50;97168.24;;;15.41;41.96
47082;BME280;33066;49.296;14.470;2023-02-18T10:04:18;97166.28;;;15.07;42.28
47082;BME280;33066;49.296;14.470;2023-02-18T10:06:39;97162.68;;;14.93;41.90
47082;BME280;33066;49.296;14.470;2023-02-18T10:09:10;97161.82;;;15.59;42.27
47082;BME280;33066;49.296;14.470;2023-02-18T10:11:32;97159.97;;;14.97;41.62
47082;BME280;33066;49.296;14.470;2023-02-18T10:13:55;97155.01;;;15.03;41.68
47082;BME280;33066;49.296;14.470;2023-02-18T10:16:23;97153.31;;;15.42;41.67
47082;BME280;33066;49.296;14.470;2023-02-18T10:18:48;97152.52;;;15.18;41.27
47082;BME280;33066;49.296;14.470;2023-02-18T10:21:15;97149.79;;;15.46;41.36
47082;BME280;33066;49.296;14.470;2023-02-18T10:23:40;97146.84;;;15.41;41.07
47082;BME280;33066;49.296;14.470;2023-02-18T10:26:05;97143.09;;;15.40;41.30
47082;BME280;33066;49.296;14.470;2023-02-18T10:28:27;97134.74;;;15.79;41.08
47082;BME280;33066;49.296;14.470;2023-02-18T10:30:57;97136.24;;;15.21;40.83
47082;BME280;33066;49.296;14.470;2023-02-18T10:35:50;97127.41;;;15.29;40.57
47082;BME280;33066;49.296;14.470;2023-02-18T10:38:16;97125.53;;;15.07;40.56
47082;BME280;33066;49.296;14.470;2023-02-18T10:40:43;97126.55;;;15.32;40.61
47082;BME280;33066;49.296;14.470;2023-02-18T10:43:08;97120.75;;;15.35;40.45
47082;BME280;33066;49.296;14.470;2023-02-18T10:45:37;97115.32;;;15.43;40.45
47082;BME280;33066;49.296;14.470;2023-02-18T10:48:01;97118.61;;;15.42;40.21
47082;BME280;33066;49.296;14.470;2023-02-18T10:50:24;97107.33;;;15.26;39.99
47082;BME280;33066;49.296;14.470;2023-02-18T10:52:46;97114.72;;;15.67;39.95
47082;BME280;33066;49.296;14.470;2023-02-18T10:55:09;97111.57;;;15.41;40.01
47082;BME280;33066;49.296;14.470;2023-02-18T10:57:32;97111.65;;;15.08;40.03
47082;BME280;33066;49.296;14.470;2023-02-18T11:00:03;97117.35;;;14.99;40.28
47082;BME280;33066;49.296;14.470;2023-02-18T11:02:27;97116.37;;;14.98;40.12
47082;BME280;33066;49.296;14.470;2023-02-18T11:04:49;97114.03;;;15.52;39.68
47082;BME280;33066;49.296;14.470;2023-02-18T11:07:18;97094.85;;;15.51;39.41
47082;BME280;33066;49.296;14.470;2023-02-18T11:09:41;97072.05;;;15.29;38.76
47082;BME280;33066;49.296;14.470;2023-02-18T11:12:12;97088.82;;;14.77;39.79
47082;BME280;33066;49.296;14.470;2023-02-18T11:14:39;97091.67;;;15.24;39.76
47082;BME280;33066;49.296;14.470;2023-02-18T11:17:07;97078.64;;;14.82;39.71
47082;BME280;33066;49.296;14.470;2023-02-18T11:19:32;97071.16;;;14.96;39.53
47082;BME280;33066;49.296;14.470;2023-02-18T11:21:47;97069.17;;;14.61;39.45
47082;BME280;33066;49.296;14.470;2023-02-18T11:24:15;97073.72;;;14.50;40.15
47082;BME280;33066;49.296;14.470;2023-02-18T11:26:39;97083.99;;;14.68;39.53
47082;BME280;33066;49.296;14.470;2023-02-18T11:29:10;97080.57;;;14.92;39.77
47082;BME280;33066;49.296;14.470;2023-02-18T11:31:39;97059.70;;;14.61;39.93
47082;BME280;33066;49.296;14.470;2023-02-18T11:33:57;97056.81;;;14.61;39.22
47082;BME280;33066;49.296;14.470;2023-02-18T11:36:24;97075.78;;;14.59;39.27
47082;BME280;33066;49.296;14.470;2023-02-18T11:38:52;97061.64;;;14.69;39.15
47082;BME280;33066;49.296;14.470;2023-02-18T11:41:16;97059.12;;;14.67;39.23
47082;BME280;33066;49.296;14.470;2023-02-18T11:43:41;97050.86;;;15.16;38.82
47082;BME280;33066;49.296;14.470;2023-02-18T11:46:10;97043.85;;;14.89;37.88
47082;BME280;33066;49.296;14.470;2023-02-18T11:48:29;97034.62;;;15.55;37.52
47082;BME280;33066;49.296;14.470;2023-02-18T11:50:59;97021.35;;;15.29;37.11
47082;BME280;33066;49.296;14.470;2023-02-18T11:53:25;97015.69;;;15.40;36.98
47082;BME280;33066;49.296;14.470;2023-02-18T11:55:52;97020.87;;;15.69;36.24
47082;BME280;33066;49.296;14.470;2023-02-18T11:58:11;97002.64;;;16.35;35.65
47082;BME280;33066;49.296;14.470;2023-02-18T12:00:39;96995.72;;;16.46;34.98
47082;BME280;33066;49.296;14.470;2023-02-18T12:03:06;96986.59;;;16.95;34.65
47082;BME280;33066;49.296;14.470;2023-02-18T12:05:27;96986.04;;;17.19;34.27
47082;BME280;33066;49.296;14.470;2023-02-18T12:07:54;96968.69;;;17.02;33.94
47082;BME280;33066;49.296;14.470;2023-02-18T12:10:24;96982.18;;;16.72;34.20
47082;BME280;33066;49.296;14.470;2023-02-18T12:12:46;96955.85;;;17.03;34.12
47082;BME280;33066;49.296;14.470;2023-02-18T12:15:12;96967.57;;;16.46;34.37
47082;BME280;33066;49.296;14.470;2023-02-18T12:17:44;96966.04;;;16.30;34.93
47082;BME280;33066;49.296;14.470;2023-02-18T12:20:15;96962.47;;;16.30;34.93
47082;BME280;33066;49.296;14.470;2023-02-18T12:22:30;96958.29;;;15.88;35.42
47082;BME280;33066;49.296;14.470;2023-02-18T12:27:19;96954.17;;;16.28;34.73
47082;BME280;33066;49.296;14.470;2023-02-18T12:29:51;96946.41;;;16.26;34.52
47082;BME280;33066;49.296;14.470;2023-02-18T12:32:11;96950.34;;;16.09;34.49
47082;BME280;33066;49.296;14.470;2023-02-18T12:34:43;96940.57;;;15.95;34.41
47082;BME280;33066;49.296;14.470;2023-02-18T12:37:06;96948.09;;;16.08;34.65
47082;BME280;33066;49.296;14.470;2023-02-18T12:39:34;96934.30;;;16.23;34.61
47082;BME280;33066;49.296;14.470;2023-02-18T12:41:58;96922.99;;;15.90;34.70
47082;BME280;33066;49.296;14.470;2023-02-18T12:44:21;96917.34;;;15.61;34.36
47082;BME280;33066;49.296;14.470;2023-02-18T12:46:51;96919.17;;;15.93;34.27
47082;BME280;33066;49.296;14.470;2023-02-18T12:49:26;96903.89;;;15.84;34.15
47082;BME280;33066;49.296;14.470;2023-02-18T12:51:34;96908.25;;;15.29;35.12
47082;BME280;33066;49.296;14.470;2023-02-18T12:54:06;96896.93;;;15.62;34.95
47082;BME280;33066;49.296;14.470;2023-02-18T12:56:36;96905.24;;;15.81;34.58
47082;BME280;33066;49.296;14.470;2023-02-18T12:58:50;96900.46;;;15.92;34.56
47082;BME280;33066;49.296;14.470;2023-02-18T13:01:20;96898.27;;;16.15;34.31